sensor_id;sensor_type;location;lat;lon;timestamp;temperature;humidity
2391;DHT22;22957;50.824;4.360;2022-11-11T00:01:01;12.50;99.90
2391;DHT22;22957;50.824;4.360;2022-11-11T00:03:28;12.10;99.90
2391;DHT22;22957;50.824;4.360;2022-11-11T00:05:54;12.10;99.90
2391;DHT22;22957;50.824;4.360;2022-11-11T00:08:20;12.40;99.90
2391;DHT22;22957;50.824;4.360;2022-11-11T00:10:45;12.10;99.90
2391;DHT22;22957;50.824;4.360;2022-11-11T00:13:11;12.30;99.90
2391;DHT22;22957;50.824;4.360;2022-11-11T00:15:38;12.00;99.90
2391;DHT22;22957;50.824;4.360;2022-11-11T00:18:09;12.10;99.90
2391;DHT22;22957;50.824;4.360;2022-11-11T00:20:57;12.40;99.90
2391;DHT22;22957;50.824;4.360;2022-11-11T00:23:42;12.20;99.90
2391;DHT22;22957;50.824;4.360;2022-11-11T00:26:27;12.20;99.90
2391;DHT22;22957;50.824;4.360;2022-11-11T00:28:56;12.70;99.90
2391;DHT22;22957;50.824;4.360;2022-11-11T00:31:22;12.50;99.90
2391;DHT22;22957;50.824;4.360;2022-11-11T00:33:48;12.60;99.90
2391;DHT22;22957;50.824;4.360;2022-11-11T00:36:16;12.70;99.90
2391;DHT22;22957;50.824;4.360;2022-11-11T00:38:43;12.50;99.90
2391;DHT22;22957;50.824;4.360;2022-11-11T00:41:19;12.20;99.90
2391;DHT22;22957;50.824;4.360;2022-11-11T00:43:46;12.10;99.90
2391;DHT22;22957;50.824;4.360;2022-11-11T00:46:13;12.10;99.90
2391;DHT22;22957;50.824;4.360;2022-11-11T00:48:57;12.70;99.90
2391;DHT22;22957;50.824;4.360;2022-11-11T00:51:43;12.60;99.90
2391;DHT22;22957;50.824;4.360;2022-11-11T00:54:09;12.60;99.90
2391;DHT22;22957;50.824;4.360;2022-11-11T00:56:35;12.50;99.90
2391;DHT22;22957;50.824;4.360;2022-11-11T00:59:03;12.20;99.90
2391;DHT22;22957;50.824;4.360;2022-11-11T01:01:29;12.60;99.90
2391;DHT22;22957;50.824;4.360;2022-11-11T01:03:55;12.70;99.90
2391;DHT22;22957;50.824;4.360;2022-11-11T01:06:20;12.20;99.90
2391;DHT22;22957;50.824;4.360;2022-11-11T01:08:46;12.40;99.90
2391;DHT22;22957;50.824;4.360;2022-11-11T01:11:14;12.40;99.90
2391;DHT22;22957;50.824;4.360;2022-11-11T01:13:43;12.20;99.90
2391;DHT22;22957;50.824;4.360;2022-11-11T01:16:13;12.20;99.90
2391;DHT22;22957;50.824;4.360;2022-11-11T01:18:39;12.10;99.90
2391;DHT22;22957;50.824;4.360;2022-11-11T01:21:23;12.60;99.90
2391;DHT22;22957;50.824;4.360;2022-11-11T01:23:51;12.40;99.90
2391;DHT22;22957;50.824;4.360;2022-11-11T01:26:23;12.50;99.90
2391;DHT22;22957;50.824;4.360;2022-11-11T01:28:55;12.30;99.90
2391;DHT22;22957;50.824;4.360;2022-11-11T01:31:24;12.90;99.90
2391;DHT22;22957;50.824;4.360;2022-11-11T01:33:50;12.70;99.90
2391;DHT22;22957;50.824;4.360;2022-11-11T01:36:24;12.90;99.90
2391;DHT22;22957;50.824;4.360;2022-11-11T01:38:53;12.90;99.90
2391;DHT22;22957;50.824;4.360;2022-11-11T01:41:22;12.60;99.90
2391;DHT22;22957;50.824;4.360;2022-11-11T01:44:01;12.40;99.90
2391;DHT22;22957;50.824;4.360;2022-11-11T01:46:57;12.50;99.90
2391;DHT22;22957;50.824;4.360;2022-11-11T01:49:48;12.50;99.90
2391;DHT22;22957;50.824;4.360;2022-11-11T01:52:30;12.40;99.90
2391;DHT22;22957;50.824;4.360;2022-11-11T01:55:14;12.20;99.90
2391;DHT22;22957;50.824;4.360;2022-11-11T01:57:50;12.20;99.90
2391;DHT22;22957;50.824;4.360;2022-11-11T02:00:18;12.30;99.90
2391;DHT22;22957;50.824;4.360;2022-11-11T02:02:50;12.20;99.90
2391;DHT22;22957;50.824;4.360;2022-11-11T02:05:20;12.20;99.90
2391;DHT22;22957;50.824;4.360;2022-11-11T02:08:11;12.00;99.90
2391;DHT22;22957;50.824;4.360;2022-11-11T02:10:40;12.30;99.90
2391;DHT22;22957;50.824;4.360;2022-11-11T02:13:14;12.20;99.90
2391;DHT22;22957;50.824;4.360;2022-11-11T02:15:58;12.60;99.90
2391;DHT22;22957;50.824;4.360;2022-11-11T02:18:25;12.30;99.90
2391;DHT22;22957;50.824;4.360;2022-11-11T02:20:51;12.10;99.90
2391;DHT22;22957;50.824;4.360;2022-11-11T02:26:20;12.30;99.90
2391;DHT22;22957;50.824;4.360;2022-11-11T02:28:46;12.00;99.90
2391;DHT22;22957;50.824;4.360;2022-11-11T02:31:12;12.30;99.90
2391;DHT22;22957;50.824;4.360;2022-11-11T02:33:38;11.90;99.90
2391;DHT22;22957;50.824;4.360;2022-11-11T02:36:04;11.70;99.90
2391;DHT22;22957;50.824;4.360;2022-11-11T02:38:30;12.10;99.90
2391;DHT22;22957;50.824;4.360;2022-11-11T02:40:56;12.00;99.90
2391;DHT22;22957;50.824;4.360;2022-11-11T02:43:40;12.40;99.90
2391;DHT22;22957;50.824;4.360;2022-11-11T02:46:07;11.90;99.90
2391;DHT22;22957;50.824;4.360;2022-11-11T02:48:33;12.10;99.90
2391;DHT22;22957;50.824;4.360;2022-11-11T02:50:59;12.10;99.90
2391;DHT22;22957;50.824;4.360;2022-11-11T02:53:25;12.20;99.90
2391;DHT22;22957;50.824;4.360;2022-11-11T02:55:50;12.70;99.90
2391;DHT22;22957;50.824;4.360;2022-11-11T02:58:16;12.20;99.90
2391;DHT22;22957;50.824;4.360;2022-11-11T03:00:42;12.50;99.90
2391;DHT22;22957;50.824;4.360;2022-11-11T03:03:10;12.50;99.90
2391;DHT22;22957;50.824;4.360;2022-11-11T03:05:35;12.20;99.90
2391;DHT22;22957;50.824;4.360;2022-11-11T03:08:01;12.40;99.90
2391;DHT22;22957;50.824;4.360;2022-11-11T03:10:27;12.70;99.90
2391;DHT22;22957;50.824;4.360;2022-11-11T03:12:53;12.40;99.90
2391;DHT22;22957;50.824;4.360;2022-11-11T03:15:18;12.40;99.90
2391;DHT22;22957;50.824;4.360;2022-11-11T03:17:44;12.30;99.90
2391;DHT22;22957;50.824;4.360;2022-11-11T03:20:12;12.40;99.90
2391;DHT22;22957;50.824;4.360;2022-11-11T03:23:01;12.60;99.90
2391;DHT22;22957;50.824;4.360;2022-11-11T03:25:28;12.40;99.90
2391;DHT22;22957;50.824;4.360;2022-11-11T03:28:10;12.40;99.90
2391;DHT22;22957;50.824;4.360;2022-11-11T03:30:38;12.10;99.90
2391;DHT22;22957;50.824;4.360;2022-11-11T03:33:04;12.20;99.90
2391;DHT22;22957;50.824;4.360;2022-11-11T03:35:30;12.50;99.90
2391;DHT22;22957;50.824;4.360;2022-11-11T03:37:56;12.10;99.90
2391;DHT22;22957;50.824;4.360;2022-11-11T03:40:44;12.10;99.90
2391;DHT22;22957;50.824;4.360;2022-11-11T03:43:11;12.20;99.90
2391;DHT22;22957;50.824;4.360;2022-11-11T03:45:37;11.90;99.90
2391;DHT22;22957;50.824;4.360;2022-11-11T03:48:03;12.60;99.90
2391;DHT22;22957;50.824;4.360;2022-11-11T03:50:30;12.50;99.90
2391;DHT22;22957;50.824;4.360;2022-11-11T03:52:55;12.40;99.90
2391;DHT22;22957;50.824;4.360;2022-11-11T03:55:21;12.10;99.90
2391;DHT22;22957;50.824;4.360;2022-11-11T03:57:47;11.80;99.90
2391;DHT22;22957;50.824;4.360;2022-11-11T04:00:24;12.20;99.90
2391;DHT22;22957;50.824;4.360;2022-11-11T04:02:51;12.20;99.90
2391;DHT22;22957;50.824;4.360;2022-11-11T04:05:35;12.40;99.90
2391;DHT22;22957;50.824;4.360;2022-11-11T04:08:21;12.20;99.90
2391;DHT22;22957;50.824;4.360;2022-11-11T04:11:13;12.50;99.90
2391;DHT22;22957;50.824;4.360;2022-11-11T04:13:43;12.50;99.90
2391;DHT22;22957;50.824;4.360;2022-11-11T04:16:29;12.80;99.90
2391;DHT22;22957;50.824;4.360;2022-11-11T04:18:55;12.70;99.90
2391;DHT22;22957;50.824;4.360;2022-11-11T04:21:39;12.40;99.90
2391;DHT22;22957;50.824;4.360;2022-11-11T04:26:57;12.60;99.90
2391;DHT22;22957;50.824;4.360;2022-11-11T04:29:24;12.50;99.90
2391;DHT22;22957;50.824;4.360;2022-11-11T04:32:03;12.30;99.90
2391;DHT22;22957;50.824;4.360;2022-11-11T04:34:49;11.70;99.90
2391;DHT22;22957;50.824;4.360;2022-11-11T04:37:16;11.80;99.90
2391;DHT22;22957;50.824;4.360;2022-11-11T04:39:42;11.80;99.90
2391;DHT22;22957;50.824;4.360;2022-11-11T04:42:28;12.00;99.90
2391;DHT22;22957;50.824;4.360;2022-11-11T04:44:54;11.70;99.90
2391;DHT22;22957;50.824;4.360;2022-11-11T04:47:52;11.80;99.90
2391;DHT22;22957;50.824;4.360;2022-11-11T04:50:18;11.30;99.90
2391;DHT22;22957;50.824;4.360;2022-11-11T04:52:43;11.60;99.90
2391;DHT22;22957;50.824;4.360;2022-11-11T04:55:09;11.90;99.90
2391;DHT22;22957;50.824;4.360;2022-11-11T04:57:53;11.80;99.90
2391;DHT22;22957;50.824;4.360;2022-11-11T05:00:19;11.60;99.90
2391;DHT22;22957;50.824;4.360;2022-11-11T05:02:45;11.40;99.90
2391;DHT22;22957;50.824;4.360;2022-11-11T05:05:30;11.40;99.90
2391;DHT22;22957;50.824;4.360;2022-11-11T05:08:18;11.30;99.90
2391;DHT22;22957;50.824;4.360;2022-11-11T05:11:03;11.40;99.90
2391;DHT22;22957;50.824;4.360;2022-11-11T05:13:29;11.30;99.90
2391;DHT22;22957;50.824;4.360;2022-11-11T05:16:16;11.60;99.90
2391;DHT22;22957;50.824;4.360;2022-11-11T05:19:01;11.30;99.90
2391;DHT22;22957;50.824;4.360;2022-11-11T05:21:45;11.00;99.90
2391;DHT22;22957;50.824;4.360;2022-11-11T05:24:11;11.30;99.90
2391;DHT22;22957;50.824;4.360;2022-11-11T05:27:06;11.40;99.90
2391;DHT22;22957;50.824;4.360;2022-11-11T05:29:32;11.70;99.90
2391;DHT22;22957;50.824;4.360;2022-11-11T05:31:58;11.50;99.90
2391;DHT22;22957;50.824;4.360;2022-11-11T05:34:23;11.30;99.90
2391;DHT22;22957;50.824;4.360;2022-11-11T05:36:49;11.30;99.90
2391;DHT22;22957;50.824;4.360;2022-11-11T05:39:15;11.10;99.90
2391;DHT22;22957;50.824;4.360;2022-11-11T05:41:41;10.80;99.90
2391;DHT22;22957;50.824;4.360;2022-11-11T05:44:06;10.80;99.90
2391;DHT22;22957;50.824;4.360;2022-11-11T05:46:32;10.90;99.90
2391;DHT22;22957;50.824;4.360;2022-11-11T05:48:58;11.10;99.90
2391;DHT22;22957;50.824;4.360;2022-11-11T05:51:43;11.00;99.90
2391;DHT22;22957;50.824;4.360;2022-11-11T05:54:09;11.10;99.90
2391;DHT22;22957;50.824;4.360;2022-11-11T05:56:35;11.10;99.90
2391;DHT22;22957;50.824;4.360;2022-11-11T05:59:01;11.10;99.90
2391;DHT22;22957;50.824;4.360;2022-11-11T06:01:27;11.30;99.90
2391;DHT22;22957;50.824;4.360;2022-11-11T06:03:52;11.30;99.90
2391;DHT22;22957;50.824;4.360;2022-11-11T06:06:18;10.90;99.90
2391;DHT22;22957;50.824;4.360;2022-11-11T06:08:44;10.80;99.90
2391;DHT22;22957;50.824;4.360;2022-11-11T06:11:10;10.80;99.90
2391;DHT22;22957;50.824;4.360;2022-11-11T06:13:38;10.90;99.90
2391;DHT22;22957;50.824;4.360;2022-11-11T06:16:05;10.80;99.90
2391;DHT22;22957;50.824;4.360;2022-11-11T06:18:32;10.90;99.90
2391;DHT22;22957;50.824;4.360;2022-11-11T06:21:00;10.90;99.90
2391;DHT22;22957;50.824;4.360;2022-11-11T06:23:27;10.90;99.90
2391;DHT22;22957;50.824;4.360;2022-11-11T06:25:54;11.30;99.90
2391;DHT22;22957;50.824;4.360;2022-11-11T06:28:43;11.20;99.90
2391;DHT22;22957;50.824;4.360;2022-11-11T06:31:11;10.80;99.90
2391;DHT22;22957;50.824;4.360;2022-11-11T06:33:38;10.70;99.90
2391;DHT22;22957;50.824;4.360;2022-11-11T06:36:05;10.30;99.90
2391;DHT22;22957;50.824;4.360;2022-11-11T06:38:31;10.50;99.90
2391;DHT22;22957;50.824;4.360;2022-11-11T06:40:57;10.40;99.90
2391;DHT22;22957;50.824;4.360;2022-11-11T06:43:23;10.40;99.90
2391;DHT22;22957;50.824;4.360;2022-11-11T06:45:50;10.80;99.90
2391;DHT22;22957;50.824;4.360;2022-11-11T06:48:16;10.80;99.90
2391;DHT22;22957;50.824;4.360;2022-11-11T06:50:42;10.90;99.90
2391;DHT22;22957;50.824;4.360;2022-11-11T06:53:10;10.90;99.90
2391;DHT22;22957;50.824;4.360;2022-11-11T06:55:37;11.10;99.90
2391;DHT22;22957;50.824;4.360;2022-11-11T06:58:11;10.80;99.90
2391;DHT22;22957;50.824;4.360;2022-11-11T07:00:39;10.70;99.90
2391;DHT22;22957;50.824;4.360;2022-11-11T07:03:08;11.10;99.90
2391;DHT22;22957;50.824;4.360;2022-11-11T07:05:34;11.20;99.90
2391;DHT22;22957;50.824;4.360;2022-11-11T07:08:04;11.10;99.90
2391;DHT22;22957;50.824;4.360;2022-11-11T07:10:31;11.10;99.90
2391;DHT22;22957;50.824;4.360;2022-11-11T07:12:57;11.20;99.90
2391;DHT22;22957;50.824;4.360;2022-11-11T07:15:23;11.30;99.90
2391;DHT22;22957;50.824;4.360;2022-11-11T07:17:49;11.20;99.90
2391;DHT22;22957;50.824;4.360;2022-11-11T07:20:15;11.60;99.90
2391;DHT22;22957;50.824;4.360;2022-11-11T07:22:40;11.70;99.90
2391;DHT22;22957;50.824;4.360;2022-11-11T07:25:06;11.70;99.90
2391;DHT22;22957;50.824;4.360;2022-11-11T07:27:36;11.40;99.90
2391;DHT22;22957;50.824;4.360;2022-11-11T07:30:03;11.30;99.90
2391;DHT22;22957;50.824;4.360;2022-11-11T07:32:29;11.50;99.90
2391;DHT22;22957;50.824;4.360;2022-11-11T07:34:55;11.80;99.90
2391;DHT22;22957;50.824;4.360;2022-11-11T07:37:21;11.70;99.90
2391;DHT22;22957;50.824;4.360;2022-11-11T07:39:46;11.70;99.90
2391;DHT22;22957;50.824;4.360;2022-11-11T07:42:12;11.60;99.90
2391;DHT22;22957;50.824;4.360;2022-11-11T07:44:38;11.20;99.90
2391;DHT22;22957;50.824;4.360;2022-11-11T07:47:04;11.50;99.90
2391;DHT22;22957;50.824;4.360;2022-11-11T07:49:30;11.20;99.90
2391;DHT22;22957;50.824;4.360;2022-11-11T07:51:55;11.30;99.90
2391;DHT22;22957;50.824;4.360;2022-11-11T07:54:21;11.20;99.90
2391;DHT22;22957;50.824;4.360;2022-11-11T07:56:47;11.40;99.90
2391;DHT22;22957;50.824;4.360;2022-11-11T07:59:13;11.60;99.90
2391;DHT22;22957;50.824;4.360;2022-11-11T08:01:38;11.60;99.90
2391;DHT22;22957;50.824;4.360;2022-11-11T08:04:04;11.80;99.90
2391;DHT22;22957;50.824;4.360;2022-11-11T08:06:30;11.40;99.90
2391;DHT22;22957;50.824;4.360;2022-11-11T08:08:55;12.20;99.90
2391;DHT22;22957;50.824;4.360;2022-11-11T08:11:21;12.20;99.90
2391;DHT22;22957;50.824;4.360;2022-11-11T08:14:07;12.30;99.90
2391;DHT22;22957;50.824;4.360;2022-11-11T08:16:32;12.50;99.90
2391;DHT22;22957;50.824;4.360;2022-11-11T08:18:58;12.60;99.90
2391;DHT22;22957;50.824;4.360;2022-11-11T08:21:24;12.40;99.90
2391;DHT22;22957;50.824;4.360;2022-11-11T08:23:50;12.90;99.90
2391;DHT22;22957;50.824;4.360;2022-11-11T08:26:17;12.50;99.90
2391;DHT22;22957;50.824;4.360;2022-11-11T08:28:43;12.70;99.90
2391;DHT22;22957;50.824;4.360;2022-11-11T08:31:09;13.00;99.90
2391;DHT22;22957;50.824;4.360;2022-11-11T08:33:35;12.50;99.90
2391;DHT22;22957;50.824;4.360;2022-11-11T08:36:02;12.60;99.90
2391;DHT22;22957;50.824;4.360;2022-11-11T08:38:28;12.60;99.90
2391;DHT22;22957;50.824;4.360;2022-11-11T08:40:54;12.30;99.90
2391;DHT22;22957;50.824;4.360;2022-11-11T08:43:20;12.80;99.90
2391;DHT22;22957;50.824;4.360;2022-11-11T08:45:47;12.40;99.90
2391;DHT22;22957;50.824;4.360;2022-11-11T08:48:12;12.80;99.90
2391;DHT22;22957;50.824;4.360;2022-11-11T08:50:39;12.80;99.90
2391;DHT22;22957;50.824;4.360;2022-11-11T08:53:07;13.20;99.90
2391;DHT22;22957;50.824;4.360;2022-11-11T08:55:34;13.70;99.90
2391;DHT22;22957;50.824;4.360;2022-11-11T08:58:02;13.80;99.90
2391;DHT22;22957;50.824;4.360;2022-11-11T09:00:28;13.20;99.90
2391;DHT22;22957;50.824;4.360;2022-11-11T09:02:54;13.90;99.90
2391;DHT22;22957;50.824;4.360;2022-11-11T09:05:24;14.30;99.90
2391;DHT22;22957;50.824;4.360;2022-11-11T09:07:50;14.40;99.90
2391;DHT22;22957;50.824;4.360;2022-11-11T09:10:16;14.50;99.90
2391;DHT22;22957;50.824;4.360;2022-11-11T09:12:42;14.90;99.90
2391;DHT22;22957;50.824;4.360;2022-11-11T09:15:08;15.10;99.90
2391;DHT22;22957;50.824;4.360;2022-11-11T09:17:34;15.20;99.90
2391;DHT22;22957;50.824;4.360;2022-11-11T09:19:59;15.00;99.90
2391;DHT22;22957;50.824;4.360;2022-11-11T09:22:25;15.40;99.90
2391;DHT22;22957;50.824;4.360;2022-11-11T09:24:51;15.80;99.90
2391;DHT22;22957;50.824;4.360;2022-11-11T09:27:17;16.10;99.90
2391;DHT22;22957;50.824;4.360;2022-11-11T09:29:42;16.20;99.90
2391;DHT22;22957;50.824;4.360;2022-11-11T09:32:09;16.40;99.90
2391;DHT22;22957;50.824;4.360;2022-11-11T09:34:35;17.00;99.90
2391;DHT22;22957;50.824;4.360;2022-11-11T09:37:00;17.00;99.90
2391;DHT22;22957;50.824;4.360;2022-11-11T09:39:26;16.60;99.90
2391;DHT22;22957;50.824;4.360;2022-11-11T09:45:01;17.20;99.90
2391;DHT22;22957;50.824;4.360;2022-11-11T09:50:32;18.40;99.90
2391;DHT22;22957;50.824;4.360;2022-11-11T09:53:00;17.80;99.90
2391;DHT22;22957;50.824;4.360;2022-11-11T10:01:06;18.40;99.90
2391;DHT22;22957;50.824;4.360;2022-11-11T10:03:39;18.50;99.90
2391;DHT22;22957;50.824;4.360;2022-11-11T10:06:17;18.10;99.90
2391;DHT22;22957;50.824;4.360;2022-11-11T10:09:02;18.20;99.90
2391;DHT22;22957;50.824;4.360;2022-11-11T10:14:11;18.40;99.90
2391;DHT22;22957;50.824;4.360;2022-11-11T10:16:59;18.30;99.90
2391;DHT22;22957;50.824;4.360;2022-11-11T10:19:44;18.40;99.90
2391;DHT22;22957;50.824;4.360;2022-11-11T10:22:20;18.60;99.90
2391;DHT22;22957;50.824;4.360;2022-11-11T10:24:59;18.30;99.90
2391;DHT22;22957;50.824;4.360;2022-11-11T10:27:28;18.40;99.90
2391;DHT22;22957;50.824;4.360;2022-11-11T10:29:55;17.90;99.90
2391;DHT22;22957;50.824;4.360;2022-11-11T10:32:27;18.00;99.90
2391;DHT22;22957;50.824;4.360;2022-11-11T10:34:59;18.10;99.90
2391;DHT22;22957;50.824;4.360;2022-11-11T10:37:40;17.80;99.90
2391;DHT22;22957;50.824;4.360;2022-11-11T10:40:21;18.00;99.90
2391;DHT22;22957;50.824;4.360;2022-11-11T10:42:47;17.90;99.90
2391;DHT22;22957;50.824;4.360;2022-11-11T10:48:13;17.90;99.90
2391;DHT22;22957;50.824;4.360;2022-11-11T10:50:49;18.40;99.90
2391;DHT22;22957;50.824;4.360;2022-11-11T10:53:32;18.60;99.90
2391;DHT22;22957;50.824;4.360;2022-11-11T10:59:01;17.70;99.90
2391;DHT22;22957;50.824;4.360;2022-11-11T11:01:35;17.80;99.90
2391;DHT22;22957;50.824;4.360;2022-11-11T11:04:13;18.00;99.90
2391;DHT22;22957;50.824;4.360;2022-11-11T11:06:43;18.40;99.90
2391;DHT22;22957;50.824;4.360;2022-11-11T11:09:23;18.00;99.90
2391;DHT22;22957;50.824;4.360;2022-11-11T11:12:15;18.20;99.90
2391;DHT22;22957;50.824;4.360;2022-11-11T11:14:46;17.60;99.90
2391;DHT22;22957;50.824;4.360;2022-11-11T11:17:16;17.30;99.90
2391;DHT22;22957;50.824;4.360;2022-11-11T11:19:44;17.40;99.90
2391;DHT22;22957;50.824;4.360;2022-11-11T11:22:53;17.70;99.90
2391;DHT22;22957;50.824;4.360;2022-11-11T11:25:21;17.00;99.90
2391;DHT22;22957;50.824;4.360;2022-11-11T11:27:49;17.20;99.90
2391;DHT22;22957;50.824;4.360;2022-11-11T11:30:24;17.60;99.90
2391;DHT22;22957;50.824;4.360;2022-11-11T11:33:01;17.90;99.90
2391;DHT22;22957;50.824;4.360;2022-11-11T11:35:40;17.70;99.90
2391;DHT22;22957;50.824;4.360;2022-11-11T11:38:08;17.70;99.90
2391;DHT22;22957;50.824;4.360;2022-11-11T11:40:57;17.80;99.90
2391;DHT22;22957;50.824;4.360;2022-11-11T11:43:37;17.90;99.90
2391;DHT22;22957;50.824;4.360;2022-11-11T11:46:15;18.00;99.90
2391;DHT22;22957;50.824;4.360;2022-11-11T11:49:03;17.60;99.90
2391;DHT22;22957;50.824;4.360;2022-11-11T11:57:03;18.00;99.90
2391;DHT22;22957;50.824;4.360;2022-11-11T11:59:50;17.70;99.90
2391;DHT22;22957;50.824;4.360;2022-11-11T12:05:40;18.00;99.90
2391;DHT22;22957;50.824;4.360;2022-11-11T12:11:02;17.70;99.90
2391;DHT22;22957;50.824;4.360;2022-11-11T12:28:30;18.00;99.90
2391;DHT22;22957;50.824;4.360;2022-11-11T12:34:38;18.00;99.90
2391;DHT22;22957;50.824;4.360;2022-11-11T12:40:32;18.10;99.90
2391;DHT22;22957;50.824;4.360;2022-11-11T12:51:32;18.20;99.90
2391;DHT22;22957;50.824;4.360;2022-11-11T12:54:22;18.50;99.90
2391;DHT22;22957;50.824;4.360;2022-11-11T12:57:16;18.00;99.90
2391;DHT22;22957;50.824;4.360;2022-11-11T13:02:51;17.70;99.90
2391;DHT22;22957;50.824;4.360;2022-11-11T13:11:13;17.80;99.90
2391;DHT22;22957;50.824;4.360;2022-11-11T13:16:23;17.60;99.90
2391;DHT22;22957;50.824;4.360;2022-11-11T13:24:03;17.90;99.90
2391;DHT22;22957;50.824;4.360;2022-11-11T13:26:34;18.00;99.90
2391;DHT22;22957;50.824;4.360;2022-11-11T13:32:30;17.80;99.90
2391;DHT22;22957;50.824;4.360;2022-11-11T13:34:58;18.30;99.90
2391;DHT22;22957;50.824;4.360;2022-11-11T13:37:30;17.90;99.90
2391;DHT22;22957;50.824;4.360;2022-11-11T13:40:08;17.50;99.90
2391;DHT22;22957;50.824;4.360;2022-11-11T13:42:49;17.70;99.90
2391;DHT22;22957;50.824;4.360;2022-11-11T13:45:36;17.80;99.90
2391;DHT22;22957;50.824;4.360;2022-11-11T13:48:04;17.70;99.90
2391;DHT22;22957;50.824;4.360;2022-11-11T13:50:38;17.80;99.90
2391;DHT22;22957;50.824;4.360;2022-11-11T13:53:06;17.50;99.90
2391;DHT22;22957;50.824;4.360;2022-11-11T13:55:44;17.50;99.90
2391;DHT22;22957;50.824;4.360;2022-11-11T13:58:26;17.70;99.90
2391;DHT22;22957;50.824;4.360;2022-11-11T14:01:05;17.50;99.90
2391;DHT22;22957;50.824;4.360;2022-11-11T14:11:28;17.50;99.90
2391;DHT22;22957;50.824;4.360;2022-11-11T14:13:57;17.20;99.90
2391;DHT22;22957;50.824;4.360;2022-11-11T14:21:55;16.90;99.90
2391;DHT22;22957;50.824;4.360;2022-11-11T14:24:35;16.70;99.90
2391;DHT22;22957;50.824;4.360;2022-11-11T14:29:36;16.90;99.90
2391;DHT22;22957;50.824;4.360;2022-11-11T14:32:41;16.50;99.90
2391;DHT22;22957;50.824;4.360;2022-11-11T14:35:32;16.50;99.90
2391;DHT22;22957;50.824;4.360;2022-11-11T14:40:34;16.10;99.90
2391;DHT22;22957;50.824;4.360;2022-11-11T14:43:36;16.20;99.90
2391;DHT22;22957;50.824;4.360;2022-11-11T14:46:10;16.10;99.90
2391;DHT22;22957;50.824;4.360;2022-11-11T14:51:50;16.20;99.90
2391;DHT22;22957;50.824;4.360;2022-11-11T14:54:28;16.20;99.90
2391;DHT22;22957;50.824;4.360;2022-11-11T14:57:00;16.30;99.90
2391;DHT22;22957;50.824;4.360;2022-11-11T14:59:28;16.20;99.90
2391;DHT22;22957;50.824;4.360;2022-11-11T15:01:54;16.10;99.90
2391;DHT22;22957;50.824;4.360;2022-11-11T15:04:22;15.90;99.90
2391;DHT22;22957;50.824;4.360;2022-11-11T15:07:00;16.10;99.90
2391;DHT22;22957;50.824;4.360;2022-11-11T15:15:28;15.90;99.90
2391;DHT22;22957;50.824;4.360;2022-11-11T15:32:27;15.60;99.90
2391;DHT22;22957;50.824;4.360;2022-11-11T15:37:58;15.60;99.90
2391;DHT22;22957;50.824;4.360;2022-11-11T15:40:32;15.40;99.90
2391;DHT22;22957;50.824;4.360;2022-11-11T15:43:32;15.20;99.90
2391;DHT22;22957;50.824;4.360;2022-11-11T15:46:02;15.00;99.90
2391;DHT22;22957;50.824;4.360;2022-11-11T15:48:40;15.30;99.90
2391;DHT22;22957;50.824;4.360;2022-11-11T15:51:32;15.20;99.90
2391;DHT22;22957;50.824;4.360;2022-11-11T15:54:18;14.80;99.90
2391;DHT22;22957;50.824;4.360;2022-11-11T15:56:47;14.50;99.90
2391;DHT22;22957;50.824;4.360;2022-11-11T15:59:23;14.80;99.90
2391;DHT22;22957;50.824;4.360;2022-11-11T16:01:54;14.60;99.90
2391;DHT22;22957;50.824;4.360;2022-11-11T16:04:23;14.50;99.90
2391;DHT22;22957;50.824;4.360;2022-11-11T16:06:49;14.60;99.90
2391;DHT22;22957;50.824;4.360;2022-11-11T16:09:23;14.40;99.90
2391;DHT22;22957;50.824;4.360;2022-11-11T16:11:53;14.70;99.90
2391;DHT22;22957;50.824;4.360;2022-11-11T16:14:27;14.70;99.90
2391;DHT22;22957;50.824;4.360;2022-11-11T16:16:57;14.40;99.90
2391;DHT22;22957;50.824;4.360;2022-11-11T16:19:35;14.40;99.90
2391;DHT22;22957;50.824;4.360;2022-11-11T16:22:13;14.30;99.90
2391;DHT22;22957;50.824;4.360;2022-11-11T16:24:41;14.30;99.90
2391;DHT22;22957;50.824;4.360;2022-11-11T16:27:14;14.60;99.90
2391;DHT22;22957;50.824;4.360;2022-11-11T16:29:41;14.30;99.90
2391;DHT22;22957;50.824;4.360;2022-11-11T16:34:53;14.20;99.90
2391;DHT22;22957;50.824;4.360;2022-11-11T16:37:20;14.10;99.90
2391;DHT22;22957;50.824;4.360;2022-11-11T16:39:47;14.10;99.90
2391;DHT22;22957;50.824;4.360;2022-11-11T16:42:27;14.40;99.90
2391;DHT22;22957;50.824;4.360;2022-11-11T16:45:01;14.30;99.90
2391;DHT22;22957;50.824;4.360;2022-11-11T16:50:14;14.30;99.90
2391;DHT22;22957;50.824;4.360;2022-11-11T16:53:10;14.00;99.90
2391;DHT22;22957;50.824;4.360;2022-11-11T16:55:48;14.10;99.90
2391;DHT22;22957;50.824;4.360;2022-11-11T16:58:19;14.20;99.90
2391;DHT22;22957;50.824;4.360;2022-11-11T17:00:46;13.90;99.90
2391;DHT22;22957;50.824;4.360;2022-11-11T17:03:18;13.80;99.90
2391;DHT22;22957;50.824;4.360;2022-11-11T17:06:00;13.80;99.90
2391;DHT22;22957;50.824;4.360;2022-11-11T17:11:06;13.70;99.90
2391;DHT22;22957;50.824;4.360;2022-11-11T17:13:33;13.90;99.90
2391;DHT22;22957;50.824;4.360;2022-11-11T17:16:01;13.50;99.90
2391;DHT22;22957;50.824;4.360;2022-11-11T17:18:32;13.90;99.90
2391;DHT22;22957;50.824;4.360;2022-11-11T17:20:59;13.80;99.90
2391;DHT22;22957;50.824;4.360;2022-11-11T17:23:24;13.80;99.90
2391;DHT22;22957;50.824;4.360;2022-11-11T17:25:58;13.30;99.90
2391;DHT22;22957;50.824;4.360;2022-11-11T17:28:26;13.80;99.90
2391;DHT22;22957;50.824;4.360;2022-11-11T17:30:52;13.50;99.90
2391;DHT22;22957;50.824;4.360;2022-11-11T17:33:18;13.50;99.90
2391;DHT22;22957;50.824;4.360;2022-11-11T17:35:50;13.60;99.90
2391;DHT22;22957;50.824;4.360;2022-11-11T17:38:16;13.90;99.90
2391;DHT22;22957;50.824;4.360;2022-11-11T17:40:46;13.70;99.90
2391;DHT22;22957;50.824;4.360;2022-11-11T17:43:12;13.30;99.90
2391;DHT22;22957;50.824;4.360;2022-11-11T17:45:39;13.40;99.90
2391;DHT22;22957;50.824;4.360;2022-11-11T17:48:06;13.40;99.90
2391;DHT22;22957;50.824;4.360;2022-11-11T17:50:32;13.70;99.90
2391;DHT22;22957;50.824;4.360;2022-11-11T17:52:58;13.70;99.90
2391;DHT22;22957;50.824;4.360;2022-11-11T17:55:24;13.50;99.90
2391;DHT22;22957;50.824;4.360;2022-11-11T17:57:49;14.00;99.90
2391;DHT22;22957;50.824;4.360;2022-11-11T18:00:16;14.20;99.90
2391;DHT22;22957;50.824;4.360;2022-11-11T18:02:42;14.00;99.90
2391;DHT22;22957;50.824;4.360;2022-11-11T18:05:08;14.10;99.90
2391;DHT22;22957;50.824;4.360;2022-11-11T18:07:35;13.60;99.90
2391;DHT22;22957;50.824;4.360;2022-11-11T18:10:01;13.60;99.90
2391;DHT22;22957;50.824;4.360;2022-11-11T18:15:03;13.90;99.90
2391;DHT22;22957;50.824;4.360;2022-11-11T18:17:34;13.50;99.90
2391;DHT22;22957;50.824;4.360;2022-11-11T18:27:43;13.70;99.90
2391;DHT22;22957;50.824;4.360;2022-11-11T18:30:10;13.80;99.90
2391;DHT22;22957;50.824;4.360;2022-11-11T18:32:37;13.80;99.90
2391;DHT22;22957;50.824;4.360;2022-11-11T18:35:03;13.60;99.90
2391;DHT22;22957;50.824;4.360;2022-11-11T18:37:35;13.40;99.90
2391;DHT22;22957;50.824;4.360;2022-11-11T18:40:03;13.10;99.90
2391;DHT22;22957;50.824;4.360;2022-11-11T18:42:32;13.20;99.90